sensor_id;sensor_type;location;lat;lon;timestamp;P1;durP1;ratioP1;P2;durP2;ratioP2
60502;SDS011;51448;51.660;5.824;2022-12-18T00:01:25;50.10;;;24.08;;
60502;SDS011;51448;51.660;5.824;2022-12-18T00:06:24;44.00;;;21.77;;
60502;SDS011;51448;51.660;5.824;2022-12-18T00:08:55;52.00;;;26.55;;
60502;SDS011;51448;51.660;5.824;2022-12-18T00:11:25;53.40;;;25.98;;
60502;SDS011;51448;51.660;5.824;2022-12-18T00:16:25;40.80;;;19.73;;
60502;SDS011;51448;51.660;5.824;2022-12-18T00:18:57;48.08;;;21.35;;
60502;SDS011;51448;51.660;5.824;2022-12-18T00:21:25;41.92;;;20.83;;
60502;SDS011;51448;51.660;5.824;2022-12-18T00:23:54;47.92;;;22.80;;
60502;SDS011;51448;51.660;5.824;2022-12-18T00:26:24;49.67;;;24.15;;
60502;SDS011;51448;51.660;5.824;2022-12-18T00:29:03;44.05;;;22.92;;
60502;SDS011;51448;51.660;5.824;2022-12-18T00:31:42;48.33;;;21.15;;
60502;SDS011;51448;51.660;5.824;2022-12-18T00:34:11;38.33;;;20.08;;
60502;SDS011;51448;51.660;5.824;2022-12-18T00:36:40;41.45;;;19.92;;
60502;SDS011;51448;51.660;5.824;2022-12-18T00:39:10;43.05;;;19.90;;
60502;SDS011;51448;51.660;5.824;2022-12-18T00:41:39;41.33;;;18.42;;
60502;SDS011;51448;51.660;5.824;2022-12-18T00:44:25;38.75;;;18.65;;
60502;SDS011;51448;51.660;5.824;2022-12-18T00:46:52;40.25;;;19.52;;
60502;SDS011;51448;51.660;5.824;2022-12-18T00:49:20;43.78;;;23.73;;
60502;SDS011;51448;51.660;5.824;2022-12-18T00:51:48;45.88;;;22.67;;
60502;SDS011;51448;51.660;5.824;2022-12-18T00:54:16;42.72;;;23.35;;
60502;SDS011;51448;51.660;5.824;2022-12-18T00:56:44;42.95;;;23.55;;
60502;SDS011;51448;51.660;5.824;2022-12-18T00:59:16;41.13;;;18.70;;
60502;SDS011;51448;51.660;5.824;2022-12-18T01:01:45;40.05;;;18.52;;
60502;SDS011;51448;51.660;5.824;2022-12-18T01:04:14;38.67;;;18.45;;
60502;SDS011;51448;51.660;5.824;2022-12-18T01:06:44;42.50;;;17.03;;
60502;SDS011;51448;51.660;5.824;2022-12-18T01:09:12;38.10;;;17.75;;
60502;SDS011;51448;51.660;5.824;2022-12-18T01:11:40;38.28;;;18.17;;
60502;SDS011;51448;51.660;5.824;2022-12-18T01:14:08;41.10;;;20.95;;
60502;SDS011;51448;51.660;5.824;2022-12-18T01:16:37;37.55;;;18.90;;
60502;SDS011;51448;51.660;5.824;2022-12-18T01:19:04;40.72;;;21.52;;
60502;SDS011;51448;51.660;5.824;2022-12-18T01:21:32;35.03;;;18.92;;
60502;SDS011;51448;51.660;5.824;2022-12-18T01:24:03;33.77;;;16.13;;
60502;SDS011;51448;51.660;5.824;2022-12-18T01:26:32;38.17;;;19.17;;
60502;SDS011;51448;51.660;5.824;2022-12-18T01:28:59;33.80;;;17.83;;
60502;SDS011;51448;51.660;5.824;2022-12-18T01:31:30;30.83;;;16.50;;
60502;SDS011;51448;51.660;5.824;2022-12-18T01:34:02;34.45;;;15.98;;
60502;SDS011;51448;51.660;5.824;2022-12-18T01:36:35;31.98;;;16.75;;
60502;SDS011;51448;51.660;5.824;2022-12-18T01:39:09;29.50;;;15.27;;
60502;SDS011;51448;51.660;5.824;2022-12-18T01:41:41;32.03;;;15.52;;
60502;SDS011;51448;51.660;5.824;2022-12-18T01:50:15;32.92;;;15.60;;
60502;SDS011;51448;51.660;5.824;2022-12-18T01:52:48;30.67;;;16.60;;
60502;SDS011;51448;51.660;5.824;2022-12-18T01:55:22;27.52;;;14.15;;
60502;SDS011;51448;51.660;5.824;2022-12-18T01:57:55;32.83;;;17.20;;
60502;SDS011;51448;51.660;5.824;2022-12-18T02:00:26;34.28;;;16.13;;
60502;SDS011;51448;51.660;5.824;2022-12-18T02:02:55;31.35;;;15.40;;
60502;SDS011;51448;51.660;5.824;2022-12-18T02:05:29;30.63;;;15.63;;
60502;SDS011;51448;51.660;5.824;2022-12-18T02:09:20;34.85;;;16.17;;
60502;SDS011;51448;51.660;5.824;2022-12-18T02:14:17;26.75;;;13.18;;
60502;SDS011;51448;51.660;5.824;2022-12-18T02:17:58;30.00;;;14.32;;
60502;SDS011;51448;51.660;5.824;2022-12-18T02:23:10;31.48;;;14.63;;
60502;SDS011;51448;51.660;5.824;2022-12-18T02:26:20;28.00;;;14.98;;
60502;SDS011;51448;51.660;5.824;2022-12-18T02:29:18;27.48;;;13.45;;
60502;SDS011;51448;51.660;5.824;2022-12-18T02:31:56;31.48;;;14.07;;
60502;SDS011;51448;51.660;5.824;2022-12-18T02:34:32;32.72;;;15.18;;
60502;SDS011;51448;51.660;5.824;2022-12-18T02:37:09;26.75;;;14.00;;
60502;SDS011;51448;51.660;5.824;2022-12-18T02:39:43;29.92;;;14.85;;
60502;SDS011;51448;51.660;5.824;2022-12-18T02:42:16;27.02;;;13.27;;
60502;SDS011;51448;51.660;5.824;2022-12-18T02:44:48;26.30;;;13.75;;
60502;SDS011;51448;51.660;5.824;2022-12-18T02:47:31;25.70;;;13.23;;
60502;SDS011;51448;51.660;5.824;2022-12-18T02:56:01;26.65;;;12.73;;
60502;SDS011;51448;51.660;5.824;2022-12-18T02:58:52;25.02;;;12.77;;
60502;SDS011;51448;51.660;5.824;2022-12-18T03:01:35;32.65;;;14.23;;
60502;SDS011;51448;51.660;5.824;2022-12-18T03:04:29;25.73;;;13.70;;
60502;SDS011;51448;51.660;5.824;2022-12-18T03:07:09;26.33;;;11.98;;
60502;SDS011;51448;51.660;5.824;2022-12-18T03:09:46;26.90;;;13.45;;
60502;SDS011;51448;51.660;5.824;2022-12-18T03:12:30;22.13;;;13.10;;
60502;SDS011;51448;51.660;5.824;2022-12-18T03:17:46;23.67;;;11.80;;
60502;SDS011;51448;51.660;5.824;2022-12-18T03:20:34;24.05;;;12.38;;
60502;SDS011;51448;51.660;5.824;2022-12-18T03:23:08;22.67;;;11.40;;
60502;SDS011;51448;51.660;5.824;2022-12-18T03:25:46;25.85;;;13.07;;
60502;SDS011;51448;51.660;5.824;2022-12-18T03:28:20;24.48;;;12.00;;
60502;SDS011;51448;51.660;5.824;2022-12-18T03:30:56;24.05;;;11.68;;
60502;SDS011;51448;51.660;5.824;2022-12-18T03:33:37;24.80;;;11.93;;
60502;SDS011;51448;51.660;5.824;2022-12-18T03:36:14;23.85;;;12.23;;
60502;SDS011;51448;51.660;5.824;2022-12-18T03:38:42;24.63;;;11.88;;
60502;SDS011;51448;51.660;5.824;2022-12-18T03:41:25;22.98;;;11.40;;
60502;SDS011;51448;51.660;5.824;2022-12-18T03:44:36;30.95;;;12.30;;
60502;SDS011;51448;51.660;5.824;2022-12-18T03:56:02;24.00;;;11.38;;
60502;SDS011;51448;51.660;5.824;2022-12-18T03:58:37;23.35;;;10.75;;
60502;SDS011;51448;51.660;5.824;2022-12-18T04:01:17;26.20;;;11.68;;
60502;SDS011;51448;51.660;5.824;2022-12-18T04:03:49;23.90;;;11.15;;
60502;SDS011;51448;51.660;5.824;2022-12-18T04:06:20;22.17;;;11.75;;
60502;SDS011;51448;51.660;5.824;2022-12-18T04:08:48;22.42;;;10.93;;
60502;SDS011;51448;51.660;5.824;2022-12-18T04:11:20;20.52;;;10.80;;
60502;SDS011;51448;51.660;5.824;2022-12-18T04:13:48;18.70;;;11.18;;
60502;SDS011;51448;51.660;5.824;2022-12-18T04:16:22;20.80;;;10.82;;
60502;SDS011;51448;51.660;5.824;2022-12-18T04:18:53;26.77;;;10.93;;
60502;SDS011;51448;51.660;5.824;2022-12-18T04:21:23;21.42;;;11.18;;
60502;SDS011;51448;51.660;5.824;2022-12-18T04:23:52;21.73;;;10.45;;
60502;SDS011;51448;51.660;5.824;2022-12-18T04:26:22;22.95;;;10.85;;
60502;SDS011;51448;51.660;5.824;2022-12-18T04:29:15;18.83;;;9.70;;
60502;SDS011;51448;51.660;5.824;2022-12-18T04:31:43;22.67;;;12.10;;
60502;SDS011;51448;51.660;5.824;2022-12-18T04:34:11;20.80;;;10.48;;
60502;SDS011;51448;51.660;5.824;2022-12-18T04:36:46;22.38;;;10.50;;
60502;SDS011;51448;51.660;5.824;2022-12-18T04:39:14;24.13;;;11.05;;
60502;SDS011;51448;51.660;5.824;2022-12-18T04:41:47;23.27;;;10.75;;
60502;SDS011;51448;51.660;5.824;2022-12-18T04:44:14;22.58;;;10.48;;
60502;SDS011;51448;51.660;5.824;2022-12-18T04:46:42;23.55;;;11.52;;
60502;SDS011;51448;51.660;5.824;2022-12-18T04:49:10;23.27;;;11.45;;
60502;SDS011;51448;51.660;5.824;2022-12-18T04:51:37;19.42;;;10.40;;
60502;SDS011;51448;51.660;5.824;2022-12-18T04:54:05;21.00;;;10.88;;
60502;SDS011;51448;51.660;5.824;2022-12-18T04:56:33;22.20;;;10.93;;
60502;SDS011;51448;51.660;5.824;2022-12-18T04:59:01;23.35;;;9.60;;
60502;SDS011;51448;51.660;5.824;2022-12-18T05:01:28;19.05;;;9.98;;
60502;SDS011;51448;51.660;5.824;2022-12-18T05:04:01;26.15;;;12.27;;
60502;SDS011;51448;51.660;5.824;2022-12-18T05:06:29;20.70;;;10.45;;
60502;SDS011;51448;51.660;5.824;2022-12-18T05:08:57;18.90;;;9.32;;
60502;SDS011;51448;51.660;5.824;2022-12-18T05:11:26;21.15;;;10.18;;
60502;SDS011;51448;51.660;5.824;2022-12-18T05:13:54;17.40;;;9.98;;
60502;SDS011;51448;51.660;5.824;2022-12-18T05:16:21;21.27;;;9.43;;
60502;SDS011;51448;51.660;5.824;2022-12-18T05:18:49;19.45;;;10.15;;
60502;SDS011;51448;51.660;5.824;2022-12-18T05:21:16;19.67;;;9.35;;
60502;SDS011;51448;51.660;5.824;2022-12-18T05:23:44;21.23;;;10.10;;
60502;SDS011;51448;51.660;5.824;2022-12-18T05:26:13;21.90;;;10.88;;
60502;SDS011;51448;51.660;5.824;2022-12-18T05:28:45;20.40;;;10.55;;
60502;SDS011;51448;51.660;5.824;2022-12-18T05:31:13;19.95;;;10.52;;
60502;SDS011;51448;51.660;5.824;2022-12-18T05:33:41;20.40;;;10.15;;
60502;SDS011;51448;51.660;5.824;2022-12-18T05:36:10;22.52;;;10.63;;
60502;SDS011;51448;51.660;5.824;2022-12-18T05:38:38;23.70;;;9.93;;
60502;SDS011;51448;51.660;5.824;2022-12-18T05:41:06;18.17;;;10.75;;
60502;SDS011;51448;51.660;5.824;2022-12-18T05:43:36;23.90;;;11.23;;
60502;SDS011;51448;51.660;5.824;2022-12-18T05:46:07;20.98;;;10.95;;
60502;SDS011;51448;51.660;5.824;2022-12-18T05:48:38;21.70;;;10.57;;
60502;SDS011;51448;51.660;5.824;2022-12-18T05:51:07;20.23;;;9.73;;
60502;SDS011;51448;51.660;5.824;2022-12-18T05:53:41;20.95;;;10.30;;
60502;SDS011;51448;51.660;5.824;2022-12-18T05:56:20;20.10;;;10.38;;
60502;SDS011;51448;51.660;5.824;2022-12-18T05:58:53;20.05;;;9.50;;
60502;SDS011;51448;51.660;5.824;2022-12-18T06:01:22;19.48;;;10.07;;
60502;SDS011;51448;51.660;5.824;2022-12-18T06:03:53;22.27;;;10.15;;
60502;SDS011;51448;51.660;5.824;2022-12-18T06:06:23;25.33;;;9.60;;
60502;SDS011;51448;51.660;5.824;2022-12-18T06:08:53;21.55;;;10.02;;
60502;SDS011;51448;51.660;5.824;2022-12-18T06:11:23;19.50;;;9.57;;
60502;SDS011;51448;51.660;5.824;2022-12-18T06:13:54;23.33;;;10.88;;
60502;SDS011;51448;51.660;5.824;2022-12-18T06:16:25;22.08;;;10.43;;
60502;SDS011;51448;51.660;5.824;2022-12-18T06:18:58;24.08;;;10.23;;
60502;SDS011;51448;51.660;5.824;2022-12-18T06:21:28;23.95;;;10.80;;
60502;SDS011;51448;51.660;5.824;2022-12-18T06:23:57;20.45;;;10.27;;
60502;SDS011;51448;51.660;5.824;2022-12-18T06:26:25;19.27;;;10.98;;
60502;SDS011;51448;51.660;5.824;2022-12-18T06:28:54;24.45;;;10.77;;
60502;SDS011;51448;51.660;5.824;2022-12-18T06:31:22;20.95;;;10.65;;
60502;SDS011;51448;51.660;5.824;2022-12-18T06:33:50;23.88;;;11.73;;
60502;SDS011;51448;51.660;5.824;2022-12-18T06:36:17;23.92;;;11.65;;
60502;SDS011;51448;51.660;5.824;2022-12-18T06:38:45;17.65;;;9.60;;
60502;SDS011;51448;51.660;5.824;2022-12-18T06:41:16;22.05;;;10.77;;
60502;SDS011;51448;51.660;5.824;2022-12-18T06:43:47;20.77;;;10.90;;
60502;SDS011;51448;51.660;5.824;2022-12-18T06:46:14;21.65;;;11.52;;
60502;SDS011;51448;51.660;5.824;2022-12-18T06:48:42;21.75;;;10.95;;
60502;SDS011;51448;51.660;5.824;2022-12-18T06:51:09;24.23;;;10.30;;
60502;SDS011;51448;51.660;5.824;2022-12-18T06:53:37;22.77;;;12.00;;
60502;SDS011;51448;51.660;5.824;2022-12-18T06:56:06;21.60;;;10.55;;
60502;SDS011;51448;51.660;5.824;2022-12-18T07:01:09;20.02;;;10.18;;
60502;SDS011;51448;51.660;5.824;2022-12-18T07:03:38;19.52;;;10.57;;
60502;SDS011;51448;51.660;5.824;2022-12-18T07:06:13;19.67;;;11.90;;
60502;SDS011;51448;51.660;5.824;2022-12-18T07:08:48;19.38;;;10.68;;
60502;SDS011;51448;51.660;5.824;2022-12-18T07:11:17;21.33;;;10.38;;
60502;SDS011;51448;51.660;5.824;2022-12-18T07:13:45;21.75;;;9.98;;
60502;SDS011;51448;51.660;5.824;2022-12-18T07:16:14;19.70;;;10.57;;
60502;SDS011;51448;51.660;5.824;2022-12-18T07:18:52;19.02;;;9.73;;
60502;SDS011;51448;51.660;5.824;2022-12-18T07:21:22;18.05;;;9.75;;
60502;SDS011;51448;51.660;5.824;2022-12-18T07:23:51;20.33;;;10.38;;
60502;SDS011;51448;51.660;5.824;2022-12-18T07:26:19;21.40;;;10.27;;
60502;SDS011;51448;51.660;5.824;2022-12-18T07:28:48;21.17;;;12.18;;
60502;SDS011;51448;51.660;5.824;2022-12-18T07:31:18;19.77;;;10.43;;
60502;SDS011;51448;51.660;5.824;2022-12-18T07:33:48;18.90;;;10.82;;
60502;SDS011;51448;51.660;5.824;2022-12-18T07:36:18;19.58;;;11.15;;
60502;SDS011;51448;51.660;5.824;2022-12-18T07:38:49;17.90;;;9.30;;
60502;SDS011;51448;51.660;5.824;2022-12-18T07:41:18;20.42;;;10.55;;
60502;SDS011;51448;51.660;5.824;2022-12-18T07:43:47;21.42;;;12.40;;
60502;SDS011;51448;51.660;5.824;2022-12-18T07:46:15;26.65;;;13.43;;
60502;SDS011;51448;51.660;5.824;2022-12-18T07:48:43;19.42;;;11.52;;
60502;SDS011;51448;51.660;5.824;2022-12-18T07:51:16;21.35;;;11.88;;
60502;SDS011;51448;51.660;5.824;2022-12-18T07:53:45;18.67;;;10.95;;
60502;SDS011;51448;51.660;5.824;2022-12-18T07:56:18;23.30;;;13.70;;
60502;SDS011;51448;51.660;5.824;2022-12-18T07:58:56;23.27;;;12.85;;
60502;SDS011;51448;51.660;5.824;2022-12-18T08:01:24;20.48;;;11.55;;
60502;SDS011;51448;51.660;5.824;2022-12-18T08:03:53;21.63;;;12.88;;
60502;SDS011;51448;51.660;5.824;2022-12-18T08:06:20;23.63;;;12.57;;
60502;SDS011;51448;51.660;5.824;2022-12-18T08:08:50;22.75;;;13.88;;
60502;SDS011;51448;51.660;5.824;2022-12-18T08:11:23;21.50;;;13.10;;
60502;SDS011;51448;51.660;5.824;2022-12-18T08:13:53;23.88;;;14.27;;
60502;SDS011;51448;51.660;5.824;2022-12-18T08:16:22;23.35;;;12.63;;
60502;SDS011;51448;51.660;5.824;2022-12-18T08:18:51;22.15;;;12.02;;
60502;SDS011;51448;51.660;5.824;2022-12-18T08:21:21;21.20;;;13.15;;
60502;SDS011;51448;51.660;5.824;2022-12-18T08:23:54;21.30;;;13.52;;
60502;SDS011;51448;51.660;5.824;2022-12-18T08:26:25;20.40;;;11.43;;
60502;SDS011;51448;51.660;5.824;2022-12-18T08:28:56;19.43;;;10.37;;
60502;SDS011;51448;51.660;5.824;2022-12-18T08:31:26;19.90;;;10.63;;
60502;SDS011;51448;51.660;5.824;2022-12-18T08:33:55;23.65;;;14.73;;
60502;SDS011;51448;51.660;5.824;2022-12-18T08:36:24;22.35;;;13.10;;
60502;SDS011;51448;51.660;5.824;2022-12-18T08:38:53;27.67;;;19.75;;
60502;SDS011;51448;51.660;5.824;2022-12-18T08:41:21;22.50;;;14.52;;
60502;SDS011;51448;51.660;5.824;2022-12-18T08:43:49;21.83;;;12.48;;
60502;SDS011;51448;51.660;5.824;2022-12-18T08:46:39;21.60;;;12.43;;
60502;SDS011;51448;51.660;5.824;2022-12-18T08:49:09;24.25;;;15.30;;
60502;SDS011;51448;51.660;5.824;2022-12-18T08:51:38;22.95;;;14.88;;
60502;SDS011;51448;51.660;5.824;2022-12-18T08:54:07;24.65;;;16.20;;
60502;SDS011;51448;51.660;5.824;2022-12-18T08:56:38;21.55;;;13.98;;
60502;SDS011;51448;51.660;5.824;2022-12-18T08:59:06;22.60;;;14.60;;
60502;SDS011;51448;51.660;5.824;2022-12-18T09:01:33;24.17;;;13.98;;
60502;SDS011;51448;51.660;5.824;2022-12-18T09:04:01;26.40;;;19.95;;
60502;SDS011;51448;51.660;5.824;2022-12-18T09:06:32;18.55;;;10.45;;
60502;SDS011;51448;51.660;5.824;2022-12-18T09:09:00;28.35;;;20.92;;
60502;SDS011;51448;51.660;5.824;2022-12-18T09:11:28;27.30;;;20.73;;
60502;SDS011;51448;51.660;5.824;2022-12-18T09:13:57;27.05;;;18.98;;
60502;SDS011;51448;51.660;5.824;2022-12-18T09:16:27;25.98;;;18.52;;
60502;SDS011;51448;51.660;5.824;2022-12-18T09:18:59;26.15;;;19.08;;
60502;SDS011;51448;51.660;5.824;2022-12-18T09:21:29;25.42;;;19.35;;
60502;SDS011;51448;51.660;5.824;2022-12-18T09:24:12;27.00;;;20.35;;
60502;SDS011;51448;51.660;5.824;2022-12-18T09:26:41;22.08;;;14.40;;
60502;SDS011;51448;51.660;5.824;2022-12-18T09:29:14;27.27;;;20.30;;
60502;SDS011;51448;51.660;5.824;2022-12-18T09:31:45;23.98;;;16.95;;
60502;SDS011;51448;51.660;5.824;2022-12-18T09:34:12;26.08;;;19.52;;
60502;SDS011;51448;51.660;5.824;2022-12-18T09:36:40;26.45;;;19.25;;
60502;SDS011;51448;51.660;5.824;2022-12-18T09:39:09;26.42;;;19.00;;
60502;SDS011;51448;51.660;5.824;2022-12-18T09:47:09;24.58;;;19.65;;
60502;SDS011;51448;51.660;5.824;2022-12-18T09:49:55;23.88;;;18.92;;
60502;SDS011;51448;51.660;5.824;2022-12-18T09:52:41;27.77;;;18.88;;
60502;SDS011;51448;51.660;5.824;2022-12-18T09:55:32;24.75;;;17.80;;
60502;SDS011;51448;51.660;5.824;2022-12-18T09:58:11;26.33;;;18.42;;
60502;SDS011;51448;51.660;5.824;2022-12-18T10:00:52;24.52;;;18.30;;
60502;SDS011;51448;51.660;5.824;2022-12-18T10:03:20;25.65;;;18.75;;
60502;SDS011;51448;51.660;5.824;2022-12-18T10:06:06;24.77;;;18.25;;
60502;SDS011;51448;51.660;5.824;2022-12-18T10:08:46;24.55;;;17.85;;
60502;SDS011;51448;51.660;5.824;2022-12-18T10:16:53;24.98;;;18.10;;
60502;SDS011;51448;51.660;5.824;2022-12-18T10:25:15;23.98;;;18.17;;
60502;SDS011;51448;51.660;5.824;2022-12-18T10:28:00;25.00;;;18.90;;
60502;SDS011;51448;51.660;5.824;2022-12-18T10:30:39;26.08;;;18.92;;
60502;SDS011;51448;51.660;5.824;2022-12-18T10:33:11;30.90;;;18.65;;
60502;SDS011;51448;51.660;5.824;2022-12-18T10:35:46;21.88;;;17.38;;
60502;SDS011;51448;51.660;5.824;2022-12-18T10:43:22;22.50;;;15.35;;
60502;SDS011;51448;51.660;5.824;2022-12-18T10:46:11;22.70;;;15.77;;
60502;SDS011;51448;51.660;5.824;2022-12-18T10:51:29;24.23;;;16.73;;
60502;SDS011;51448;51.660;5.824;2022-12-18T10:54:04;22.23;;;15.52;;
60502;SDS011;51448;51.660;5.824;2022-12-18T10:56:41;21.83;;;14.20;;
60502;SDS011;51448;51.660;5.824;2022-12-18T10:59:11;23.08;;;15.65;;
60502;SDS011;51448;51.660;5.824;2022-12-18T11:01:52;22.25;;;14.82;;
60502;SDS011;51448;51.660;5.824;2022-12-18T11:04:26;23.98;;;17.40;;
60502;SDS011;51448;51.660;5.824;2022-12-18T11:07:07;23.63;;;16.52;;
60502;SDS011;51448;51.660;5.824;2022-12-18T11:09:36;22.52;;;16.35;;
60502;SDS011;51448;51.660;5.824;2022-12-18T11:14:50;23.38;;;16.55;;
60502;SDS011;51448;51.660;5.824;2022-12-18T11:20:06;24.50;;;16.20;;
60502;SDS011;51448;51.660;5.824;2022-12-18T11:22:55;21.95;;;15.88;;
60502;SDS011;51448;51.660;5.824;2022-12-18T11:25:28;24.08;;;16.88;;
60502;SDS011;51448;51.660;5.824;2022-12-18T11:28:04;22.85;;;15.60;;
60502;SDS011;51448;51.660;5.824;2022-12-18T11:33:56;22.40;;;17.50;;
60502;SDS011;51448;51.660;5.824;2022-12-18T11:36:57;23.95;;;16.58;;
60502;SDS011;51448;51.660;5.824;2022-12-18T11:39:40;26.08;;;16.75;;
60502;SDS011;51448;51.660;5.824;2022-12-18T11:42:18;23.98;;;16.75;;
60502;SDS011;51448;51.660;5.824;2022-12-18T11:44:57;24.70;;;17.60;;
60502;SDS011;51448;51.660;5.824;2022-12-18T11:47:44;23.80;;;15.95;;
60502;SDS011;51448;51.660;5.824;2022-12-18T11:50:19;23.77;;;17.23;;
60502;SDS011;51448;51.660;5.824;2022-12-18T11:52:52;22.42;;;17.17;;
60502;SDS011;51448;51.660;5.824;2022-12-18T11:55:50;21.98;;;15.90;;
60502;SDS011;51448;51.660;5.824;2022-12-18T12:04:31;23.98;;;15.82;;
60502;SDS011;51448;51.660;5.824;2022-12-18T12:07:12;24.67;;;17.63;;
60502;SDS011;51448;51.660;5.824;2022-12-18T12:10:12;24.02;;;17.17;;
60502;SDS011;51448;51.660;5.824;2022-12-18T12:19:05;23.38;;;16.20;;
60502;SDS011;51448;51.660;5.824;2022-12-18T12:27:45;23.38;;;16.85;;
60502;SDS011;51448;51.660;5.824;2022-12-18T12:33:47;26.05;;;18.10;;
60502;SDS011;51448;51.660;5.824;2022-12-18T12:39:32;21.67;;;16.23;;
60502;SDS011;51448;51.660;5.824;2022-12-18T12:42:12;24.17;;;16.83;;
60502;SDS011;51448;51.660;5.824;2022-12-18T12:45:13;22.63;;;15.82;;
60502;SDS011;51448;51.660;5.824;2022-12-18T12:47:51;23.80;;;17.02;;
60502;SDS011;51448;51.660;5.824;2022-12-18T12:50:22;23.47;;;15.77;;
60502;SDS011;51448;51.660;5.824;2022-12-18T12:53:14;23.40;;;17.15;;
60502;SDS011;51448;51.660;5.824;2022-12-18T13:00:50;24.90;;;18.35;;
60502;SDS011;51448;51.660;5.824;2022-12-18T13:11:12;24.58;;;17.35;;
60502;SDS011;51448;51.660;5.824;2022-12-18T13:14:35;25.83;;;17.02;;
60502;SDS011;51448;51.660;5.824;2022-12-18T13:19:51;24.42;;;17.17;;
60502;SDS011;51448;51.660;5.824;2022-12-18T13:22:34;24.48;;;17.67;;
60502;SDS011;51448;51.660;5.824;2022-12-18T13:25:32;25.60;;;18.83;;
60502;SDS011;51448;51.660;5.824;2022-12-18T13:37:58;24.27;;;16.92;;
60502;SDS011;51448;51.660;5.824;2022-12-18T13:41:00;23.95;;;16.95;;
60502;SDS011;51448;51.660;5.824;2022-12-18T13:43:53;23.73;;;17.73;;
60502;SDS011;51448;51.660;5.824;2022-12-18T13:46:44;23.55;;;17.20;;
60502;SDS011;51448;51.660;5.824;2022-12-18T13:50:34;25.45;;;17.85;;
60502;SDS011;51448;51.660;5.824;2022-12-18T13:53:38;25.40;;;17.13;;
60502;SDS011;51448;51.660;5.824;2022-12-18T13:57:26;25.17;;;18.42;;
60502;SDS011;51448;51.660;5.824;2022-12-18T13:59:58;23.33;;;16.98;;
60502;SDS011;51448;51.660;5.824;2022-12-18T14:07:17;24.60;;;17.63;;
60502;SDS011;51448;51.660;5.824;2022-12-18T14:14:37;27.13;;;17.42;;
60502;SDS011;51448;51.660;5.824;2022-12-18T14:18:22;28.15;;;18.38;;
60502;SDS011;51448;51.660;5.824;2022-12-18T14:21:47;23.67;;;17.63;;
60502;SDS011;51448;51.660;5.824;2022-12-18T14:24:25;25.13;;;18.17;;
60502;SDS011;51448;51.660;5.824;2022-12-18T14:27:21;25.92;;;19.35;;
60502;SDS011;51448;51.660;5.824;2022-12-18T14:30:00;27.60;;;18.75;;
60502;SDS011;51448;51.660;5.824;2022-12-18T14:34:08;27.98;;;20.55;;
60502;SDS011;51448;51.660;5.824;2022-12-18T14:37:41;25.90;;;18.88;;
60502;SDS011;51448;51.660;5.824;2022-12-18T14:41:18;28.10;;;18.83;;
60502;SDS011;51448;51.660;5.824;2022-12-18T14:43:53;25.05;;;18.42;;
60502;SDS011;51448;51.660;5.824;2022-12-18T14:46:39;23.90;;;17.42;;
60502;SDS011;51448;51.660;5.824;2022-12-18T14:49:48;26.92;;;18.60;;
60502;SDS011;51448;51.660;5.824;2022-12-18T14:52:28;26.00;;;18.55;;
60502;SDS011;51448;51.660;5.824;2022-12-18T14:55:44;26.42;;;17.60;;
60502;SDS011;51448;51.660;5.824;2022-12-18T14:58:21;27.05;;;19.60;;
60502;SDS011;51448;51.660;5.824;2022-12-18T15:00:49;26.15;;;18.30;;
60502;SDS011;51448;51.660;5.824;2022-12-18T15:03:20;26.40;;;18.27;;
60502;SDS011;51448;51.660;5.824;2022-12-18T15:06:54;25.92;;;18.45;;
60502;SDS011;51448;51.660;5.824;2022-12-18T15:10:08;26.05;;;18.67;;
60502;SDS011;51448;51.660;5.824;2022-12-18T15:13:26;28.83;;;19.13;;
60502;SDS011;51448;51.660;5.824;2022-12-18T15:15:47;27.42;;;19.40;;
60502;SDS011;51448;51.660;5.824;2022-12-18T15:18:16;26.98;;;19.73;;
60502;SDS011;51448;51.660;5.824;2022-12-18T15:20:54;26.80;;;19.20;;
60502;SDS011;51448;51.660;5.824;2022-12-18T15:24:00;29.08;;;19.92;;
60502;SDS011;51448;51.660;5.824;2022-12-18T15:26:30;28.25;;;19.30;;
60502;SDS011;51448;51.660;5.824;2022-12-18T15:29:15;27.25;;;19.77;;
60502;SDS011;51448;51.660;5.824;2022-12-18T15:32:32;26.35;;;19.25;;
60502;SDS011;51448;51.660;5.824;2022-12-18T15:35:17;26.63;;;19.40;;
60502;SDS011;51448;51.660;5.824;2022-12-18T15:37:51;29.10;;;20.85;;
60502;SDS011;51448;51.660;5.824;2022-12-18T15:40:35;29.17;;;20.40;;
60502;SDS011;51448;51.660;5.824;2022-12-18T15:43:05;29.30;;;20.77;;
60502;SDS011;51448;51.660;5.824;2022-12-18T15:45:55;30.70;;;21.38;;
60502;SDS011;51448;51.660;5.824;2022-12-18T15:49:03;30.00;;;21.65;;
60502;SDS011;51448;51.660;5.824;2022-12-18T15:52:51;30.55;;;21.00;;
60502;SDS011;51448;51.660;5.824;2022-12-18T15:55:24;27.48;;;20.63;;
60502;SDS011;51448;51.660;5.824;2022-12-18T15:58:16;32.92;;;20.90;;
60502;SDS011;51448;51.660;5.824;2022-12-18T16:01:10;29.10;;;21.40;;
60502;SDS011;51448;51.660;5.824;2022-12-18T16:03:52;29.75;;;21.23;;
60502;SDS011;51448;51.660;5.824;2022-12-18T16:08:22;33.65;;;23.20;;
60502;SDS011;51448;51.660;5.824;2022-12-18T16:12:09;27.88;;;19.85;;
60502;SDS011;51448;51.660;5.824;2022-12-18T16:15:59;31.35;;;22.00;;
60502;SDS011;51448;51.660;5.824;2022-12-18T16:19:09;29.65;;;21.23;;
60502;SDS011;51448;51.660;5.824;2022-12-18T16:21:37;31.65;;;21.50;;
60502;SDS011;51448;51.660;5.824;2022-12-18T16:24:05;29.73;;;21.95;;
60502;SDS011;51448;51.660;5.824;2022-12-18T16:26:36;31.55;;;21.73;;
60502;SDS011;51448;51.660;5.824;2022-12-18T16:29:03;27.35;;;19.40;;
60502;SDS011;51448;51.660;5.824;2022-12-18T16:31:31;30.63;;;22.13;;
60502;SDS011;51448;51.660;5.824;2022-12-18T16:34:12;30.10;;;21.45;;
60502;SDS011;51448;51.660;5.824;2022-12-18T16:36:55;31.38;;;21.95;;
60502;SDS011;51448;51.660;5.824;2022-12-18T16:39:34;31.58;;;21.90;;
60502;SDS011;51448;51.660;5.824;2022-12-18T16:42:08;34.08;;;23.38;;
60502;SDS011;51448;51.660;5.824;2022-12-18T16:44:43;29.55;;;21.02;;
60502;SDS011;51448;51.660;5.824;2022-12-18T16:47:12;34.10;;;23.20;;
60502;SDS011;51448;51.660;5.824;2022-12-18T16:49:41;30.27;;;21.17;;
60502;SDS011;51448;51.660;5.824;2022-12-18T16:52:12;34.63;;;22.70;;
60502;SDS011;51448;51.660;5.824;2022-12-18T16:54:40;32.78;;;22.67;;
60502;SDS011;51448;51.660;5.824;2022-12-18T16:57:08;34.10;;;23.33;;
60502;SDS011;51448;51.660;5.824;2022-12-18T16:59:41;31.15;;;21.75;;
60502;SDS011;51448;51.660;5.824;2022-12-18T17:02:12;31.70;;;22.63;;
60502;SDS011;51448;51.660;5.824;2022-12-18T17:13:10;31.02;;;23.08;;
60502;SDS011;51448;51.660;5.824;2022-12-18T17:21:19;32.42;;;23.23;;
60502;SDS011;51448;51.660;5.824;2022-12-18T17:25:30;34.05;;;23.58;;
60502;SDS011;51448;51.660;5.824;2022-12-18T17:32:30;30.15;;;21.58;;
60502;SDS011;51448;51.660;5.824;2022-12-18T17:36:14;31.43;;;21.63;;
60502;SDS011;51448;51.660;5.824;2022-12-18T17:39:29;29.50;;;22.77;;
60502;SDS011;51448;51.660;5.824;2022-12-18T17:42:40;32.97;;;22.60;;
60502;SDS011;51448;51.660;5.824;2022-12-18T17:50:21;33.03;;;23.27;;
60502;SDS011;51448;51.660;5.824;2022-12-18T17:54:13;31.58;;;22.55;;
60502;SDS011;51448;51.660;5.824;2022-12-18T17:58:27;34.00;;;23.00;;
60502;SDS011;51448;51.660;5.824;2022-12-18T18:01:13;31.52;;;21.85;;
60502;SDS011;51448;51.660;5.824;2022-12-18T18:03:44;33.05;;;23.20;;